Weather History for Thermopolis, WY

Change the Weather History Date:

Friday, July 12, 2013

  Actual Average (KWRL) Record (KWRL)
Temperature  
Mean Temperature 63 °F 72 °F  
Max Temperature 73 °F 89 °F 101 °F (1969)
Min Temperature 53 °F 55 °F 40 °F (2008)
Degree Days  
Heating Degree Days 2 0  
Month to date heating degree days 10  
Since 1 June heating degree days 103  
Since 1 July heating degree days 10  
Cooling Degree Days 0 7  
Month to date cooling degree days 77  
Year to date cooling degree days 173  
Since 1 June cooling degree days 161  
Growing Degree Days 13 (Base 50)    
Moisture  
Dew Point 42 °F    
Average Humidity 47    
Maximum Humidity 88    
Minimum Humidity 25    
Precipitation  
Precipitation 0.00 in 0.03 in 0.44 in (1992)
Month to date precipitation 0.27  
Year to date precipitation 4.58  
Sea Level Pressure  
Sea Level Pressure 30.25 in    
Wind  
Wind Speed 9 mph (SE)    
Max Wind Speed 18 mph    
Max Gust Speed 29 mph    
Visibility 10 miles    
Events Rain    
T = Trace of Precipitation, MM = Missing Value Source: NWS Daily Summary

Daily Weather History Graph

Daily Weather History Graph

Search for Another Location

Airport:

Trip Planner

Search our weather history database for the weather conditions in past years. The results will help you decide how hot, cold, wet, or windy it might be!

Date:

Astronomy

Jul. 12, 2013 Rise Set
Actual Time 5:43 AM MDT 8:53 PM MDT
Civil Twilight 5:08 AM MDT 9:27 PM MDT
Nautical Twilight 4:24 AM MDT 10:12 PM MDT
Astronomical Twilight 3:29 AM MDT 11:06 PM MDT
Moon 10:12 AM MDT (7/12) 10:55 PM MDT (7/12)
Length of Visible Light 16h 19m
Length of Day
15h 09m
Waxing Crescent, 18% of the Moon is Illuminated
Jul 12
Waxing Crescent
Jul 15
First Quarter
Jul 22
Full
Jul 29
Last Quarter
Aug 6
New

Hourly Weather History & Observations

Time (MDT) Temp. Dew Point Humidity Pressure Visibility Wind Dir Wind Speed Gust Speed Precip Events Conditions
12:15 AM 68.0 °F 37.4 °F 33% 30.21 in 10.0 mi South 9.2 mph 18.4 mph N/A Rain Light Rain
12:35 AM 64.4 °F 41.0 °F 42% 30.21 in 10.0 mi NW 13.8 mph - N/A Rain Light Rain
12:55 AM 64.4 °F 41.0 °F 42% 30.20 in 10.0 mi NW 16.1 mph - N/A Rain Light Rain
1:15 AM 62.6 °F 42.8 °F 48% 30.21 in 10.0 mi WNW 12.7 mph - N/A Rain Light Rain
1:35 AM 62.6 °F 42.8 °F 48% 30.23 in 10.0 mi NW 10.4 mph - N/A Rain Light Rain
1:55 AM 62.6 °F 42.8 °F 48% 30.24 in 10.0 mi NW 8.1 mph - N/A Rain Light Rain
2:15 AM 62.6 °F 42.8 °F 48% 30.24 in 10.0 mi North 4.6 mph - N/A   Drizzle
2:35 AM 60.8 °F 44.6 °F 55% 30.24 in 10.0 mi North 8.1 mph - N/A Rain Rain
2:55 AM 59.0 °F 44.6 °F 59% 30.24 in 10.0 mi North 8.1 mph - N/A Rain Light Rain
3:15 AM 59.0 °F 46.4 °F 63% 30.26 in 10.0 mi NNE 6.9 mph - N/A Rain Light Rain
3:35 AM 55.4 °F 50.0 °F 82% 30.24 in 7.0 mi NE 6.9 mph - N/A Rain Light Rain
3:55 AM 55.4 °F 50.0 °F 82% 30.24 in 10.0 mi ENE 4.6 mph - N/A Rain Light Rain
4:15 AM 57.2 °F 50.0 °F 77% 30.23 in 10.0 mi Calm Calm - N/A   Overcast
4:35 AM 60.8 °F 48.2 °F 63% 30.23 in 10.0 mi WSW 3.5 mph - N/A   Overcast
4:55 AM 60.8 °F 48.2 °F 63% 30.23 in 10.0 mi WSW 3.5 mph - N/A   Overcast
5:15 AM 60.8 °F 46.4 °F 59% 30.22 in 10.0 mi South 10.4 mph - N/A   Overcast
5:35 AM 59.0 °F 50.0 °F 72% 30.22 in 10.0 mi South 10.4 mph - N/A   Overcast
5:55 AM 53.6 °F 50.0 °F 88% 30.24 in 10.0 mi WNW 5.8 mph - N/A   Overcast
6:15 AM 53.6 °F 50.0 °F 88% 30.24 in 10.0 mi Calm Calm - N/A   Mostly Cloudy
6:35 AM 59.0 °F 50.0 °F 72% 30.24 in 10.0 mi SSE 5.8 mph - N/A   Overcast
6:55 AM 57.2 °F 50.0 °F 77% 30.24 in 10.0 mi SSE 4.6 mph - N/A   Overcast
7:15 AM 59.0 °F 50.0 °F 72% 30.24 in 10.0 mi Calm Calm - N/A   Overcast
7:35 AM 60.8 °F 50.0 °F 68% 30.24 in 10.0 mi Calm Calm - N/A   Overcast
7:55 AM 60.8 °F 50.0 °F 68% 30.24 in 10.0 mi Calm Calm - N/A   Overcast
8:15 AM 60.8 °F 50.0 °F 68% 30.25 in 10.0 mi SSE 6.9 mph - N/A   Overcast
8:35 AM 60.8 °F 50.0 °F 68% 30.26 in 10.0 mi SSE 6.9 mph - N/A   Overcast
8:55 AM 60.8 °F 50.0 °F 68% 30.26 in 10.0 mi SE 5.8 mph - N/A   Overcast
9:15 AM 60.8 °F 50.0 °F 68% 30.26 in 10.0 mi South 6.9 mph - N/A   Overcast
9:35 AM 60.8 °F 50.0 °F 68% 30.26 in 10.0 mi South 5.8 mph - N/A   Overcast
9:55 AM 64.4 °F 44.6 °F 49% 30.26 in 10.0 mi SSW 8.1 mph - N/A   Overcast
10:15 AM 62.6 °F 46.4 °F 55% 30.26 in 10.0 mi SW 6.9 mph - N/A   Overcast
10:35 AM 64.4 °F 42.8 °F 45% 30.27 in 10.0 mi South 4.6 mph - N/A   Overcast
10:55 AM 62.6 °F 46.4 °F 55% 30.27 in 10.0 mi SE 5.8 mph - N/A   Overcast
11:15 AM 64.4 °F 46.4 °F 52% 30.27 in 10.0 mi SE 8.1 mph - N/A   Overcast
11:35 AM 64.4 °F 41.0 °F 42% 30.28 in 10.0 mi SSE 4.6 mph - N/A   Mostly Cloudy
11:55 AM 66.2 °F 35.6 °F 32% 30.28 in 10.0 mi SSW 3.5 mph - N/A   Mostly Cloudy
12:15 PM 64.4 °F 42.8 °F 45% 30.28 in 10.0 mi WNW 6.9 mph - N/A   Mostly Cloudy
12:35 PM 68.0 °F 42.8 °F 40% 30.28 in 10.0 mi West 8.1 mph - N/A   Mostly Cloudy
12:55 PM 68.0 °F 44.6 °F 43% 30.28 in 10.0 mi WNW 5.8 mph - N/A   Mostly Cloudy
1:15 PM 68.0 °F 42.8 °F 40% 30.28 in 10.0 mi WNW 4.6 mph - N/A   Scattered Clouds
1:35 PM 68.0 °F 41.0 °F 37% 30.28 in 10.0 mi Calm Calm - N/A   Mostly Cloudy
1:55 PM 68.0 °F 37.4 °F 33% 30.27 in 10.0 mi SE 12.7 mph 17.3 mph N/A   Scattered Clouds
2:15 PM 69.8 °F 41.0 °F 35% 30.27 in 10.0 mi SE 17.3 mph 20.7 mph N/A   Scattered Clouds
2:35 PM 71.6 °F 42.8 °F 35% 30.27 in 10.0 mi ESE 13.8 mph 21.9 mph N/A   Scattered Clouds
2:55 PM 71.6 °F 42.8 °F 35% 30.27 in 10.0 mi East 12.7 mph 18.4 mph N/A   Scattered Clouds
3:15 PM 71.6 °F 41.0 °F 33% 30.26 in 10.0 mi SE 18.4 mph 21.9 mph N/A   Clear
3:35 PM 71.6 °F 37.4 °F 29% 30.26 in 10.0 mi SE 13.8 mph 21.9 mph N/A   Clear
3:55 PM 71.6 °F 37.4 °F 29% 30.26 in 10.0 mi SE 13.8 mph 28.8 mph N/A   Clear
4:15 PM 71.6 °F 35.6 °F 27% 30.25 in 10.0 mi ESE 12.7 mph 24.2 mph N/A   Clear
4:35 PM 71.6 °F 35.6 °F 27% 30.24 in 10.0 mi ESE 15.0 mph 20.7 mph N/A   Clear
4:55 PM 71.6 °F 33.8 °F 25% 30.25 in 10.0 mi ESE 8.1 mph - N/A   Clear
5:15 PM 73.4 °F 35.6 °F 25% 30.24 in 10.0 mi ESE 13.8 mph - N/A   Clear
5:35 PM 71.6 °F 35.6 °F 27% 30.24 in 10.0 mi SSE 13.8 mph 17.3 mph N/A   Clear
5:55 PM 73.4 °F 35.6 °F 25% 30.23 in 10.0 mi ESE 13.8 mph 18.4 mph N/A   Clear
6:15 PM 71.6 °F 35.6 °F 27% 30.23 in 10.0 mi ESE 12.7 mph 18.4 mph N/A   Clear
6:35 PM 71.6 °F 37.4 °F 29% 30.22 in 10.0 mi SE 18.4 mph 23.0 mph N/A   Clear
6:55 PM 71.6 °F 35.6 °F 27% 30.22 in 10.0 mi ESE 16.1 mph - N/A   Clear
7:15 PM 71.6 °F 37.4 °F 29% 30.23 in 10.0 mi SE 17.3 mph 20.7 mph N/A   Clear
7:35 PM 71.6 °F 37.4 °F 29% 30.23 in 10.0 mi ESE 17.3 mph 21.9 mph N/A   Clear
7:55 PM 69.8 °F 35.6 °F 28% 30.23 in 10.0 mi SE 16.1 mph - N/A   Clear
8:15 PM 69.8 °F 35.6 °F 28% 30.23 in 10.0 mi ESE 15.0 mph 18.4 mph N/A   Clear
8:35 PM 69.8 °F 37.4 °F 31% 30.24 in 10.0 mi SE 12.7 mph - N/A   Clear
8:55 PM 68.0 °F 37.4 °F 33% 30.24 in 10.0 mi ESE 10.4 mph - N/A   Clear
9:15 PM 68.0 °F 37.4 °F 33% 30.24 in 10.0 mi ESE 11.5 mph - N/A   Clear
9:35 PM 68.0 °F 37.4 °F 33% 30.24 in 10.0 mi ESE 10.4 mph - N/A   Clear
9:55 PM 68.0 °F 37.4 °F 33% 30.25 in 10.0 mi SE 11.5 mph - N/A   Clear
10:15 PM 68.0 °F 37.4 °F 33% 30.26 in 10.0 mi SE 8.1 mph - N/A   Clear
10:35 PM 66.2 °F 37.4 °F 35% 30.26 in 10.0 mi SSE 10.4 mph - N/A   Clear
10:55 PM 68.0 °F 35.6 °F 30% 30.26 in 10.0 mi SE 9.2 mph - N/A   Clear
11:15 PM 66.2 °F 37.4 °F 35% 30.26 in 10.0 mi SSE 9.2 mph - N/A   Clear
11:35 PM 64.4 °F 39.2 °F 40% 30.27 in 10.0 mi ESE 13.8 mph - N/A   Clear
11:55 PM 64.4 °F 42.8 °F 45% 30.27 in 10.0 mi SE 16.1 mph - N/A   Clear